Time;durP1;ratioP1;P1;durP2;ratioP2;P2;SDS_P1;SDS_P2;PMS_P1;PMS_P2;Temp;Humidity;BMP_temperature;BMP_pressure;BME280_temperature;BME280_humidity;BME280_pressure;Samples;Min_cycle;Max_cycle;Signal;HPM_P1;HPM_P2
2023/07/08 00:00:47;;;;;;;5.15;3.60;;;21.10;99.90;;;;;;5039555;28;20401;-86
2023/07/08 00:04:36;;;;;;;5.60;4.47;;;20.70;99.90;;;;;;5038597;28;20399;-85
2023/07/08 00:07:39;;;;;;;5.18;4.00;;;20.90;99.90;;;;;;5035301;28;20379;-85
2023/07/08 00:14:06;;;;;;;;;;;;;;;;;;;;;
2023/07/08 00:17:00;;;;;;;5.20;3.90;;;21.10;99.90;;;;;;4998155;28;20471;-86
2023/07/08 00:23:29;;;;;;;8.20;4.30;;;21.20;99.90;;;;;;5001918;28;20393;-86
2023/07/08 00:26:23;;;;;;;;;;;;;;;;;;;;;
2023/07/08 00:32:41;;;;;;;6.20;4.30;;;21.00;99.90;;;;;;5044206;28;20390;-84
2023/07/08 00:35:32;;;;;;;;;;;;;;;;;;;;;
2023/07/08 00:42:14;;;;;;;6.20;4.10;;;20.80;99.90;;;;;;4995519;28;20397;-85
2023/07/08 00:45:34;;;;;;;8.80;4.30;;;21.00;99.90;;;;;;5014249;28;20429;-85
2023/07/08 00:48:58;;;;;;;6.15;3.80;;;21.10;99.90;;;;;;4999513;28;20392;-86
2023/07/08 01:06:18;;;;;;;6.88;4.30;;;21.10;99.90;;;;;;4995779;28;20410;-86
2023/07/08 01:09:22;;;;;;;5.93;4.60;;;21.10;99.90;;;;;;5016287;28;20874;-85
2023/07/08 01:22:24;;;;;;;6.70;4.10;;;20.80;99.90;;;;;;5006697;28;20460;-86
2023/07/08 01:29:26;;;;;;;6.80;4.38;;;20.80;99.90;;;;;;5068814;22;20466;-86
2023/07/08 01:32:17;;;;;;;;;;;;;;;;;;;;;
2023/07/08 01:38:55;;;;;;;7.03;4.13;;;20.90;99.90;;;;;;4978141;28;20439;-85
2023/07/08 01:42:04;;;;;;;7.00;3.75;;;21.00;99.90;;;;;;5043771;28;20398;-85
2023/07/08 01:48:49;;;;;;;5.28;4.28;;;21.00;99.90;;;;;;5047867;28;20396;-85
2023/07/08 01:51:37;;;;;;;6.40;4.20;;;20.80;99.90;;;;;;5072742;28;20416;-86
2023/07/08 01:54:38;;;;;;;5.93;4.20;;;21.70;99.90;;;;;;5059219;28;20430;-85
2023/07/08 02:01:30;;;;;;;6.15;3.72;;;21.20;99.90;;;;;;5051053;28;20800;-86
2023/07/08 02:08:01;;;;;;;;;;;;;;;;;;;;;
2023/07/08 02:11:30;;;;;;;;;;;;;;;;;;;;;
2023/07/08 02:15:18;;;;;;;;;;;;;;;;;;;;;
2023/07/08 02:20:44;;;;;;;4.85;3.90;;;20.80;99.90;;;;;;5049399;28;20409;-86
2023/07/08 02:23:44;;;;;;;;;;;;;;;;;;;;;
2023/07/08 02:26:10;;;;;;;5.25;3.60;;;20.90;99.90;;;;;;5060276;28;20484;-85
2023/07/08 02:29:38;;;;;;;4.70;3.90;;;21.90;99.90;;;;;;5058550;28;20432;-85
2023/07/08 02:35:48;;;;;;;6.38;4.00;;;21.70;99.90;;;;;;5011272;28;20404;-86
2023/07/08 02:38:20;;;;;;;6.53;3.83;;;21.80;99.90;;;;;;4980965;28;20436;-86
2023/07/08 02:41:16;;;;;;;6.07;3.70;;;21.90;99.90;;;;;;5038490;28;20402;-85
2023/07/08 02:43:53;;;;;;;6.55;4.22;;;21.80;99.90;;;;;;5046353;28;20441;-86
2023/07/08 02:47:12;;;;;;;6.10;3.83;;;22.10;99.90;;;;;;5046442;28;20379;-85
2023/07/08 02:49:52;;;;;;;5.40;3.50;;;21.60;99.90;;;;;;5022979;28;20402;-84
2023/07/08 02:52:32;;;;;;;4.00;3.50;;;21.70;99.90;;;;;;5051309;28;20409;-85
2023/07/08 02:55:03;;;;;;;7.37;4.57;;;22.10;99.90;;;;;;5047402;28;20419;-85
2023/07/08 02:58:13;;;;;;;8.13;4.68;;;23.00;99.90;;;;;;5041768;28;20410;-84
2023/07/08 03:01:56;;;;;;;7.72;4.20;;;22.40;99.90;;;;;;5033514;28;20415;-84
2023/07/08 03:23:43;;;;;;;;;;;;;;;;;;;;;
2023/07/08 03:33:00;;;;;;;8.20;5.00;;;21.50;99.90;;;;;;5009965;28;20463;-84
2023/07/08 03:35:26;;;;;;;7.43;4.90;;;21.90;99.90;;;;;;4963034;28;20391;-84
2023/07/08 03:37:52;;;;;;;5.83;4.63;;;22.10;99.90;;;;;;5008606;28;20908;-84
2023/07/08 03:40:18;;;;;;;6.45;4.40;;;22.50;99.90;;;;;;5037319;28;20497;-84
2023/07/08 03:42:43;;;;;;;6.30;4.47;;;22.50;99.90;;;;;;5014285;28;20475;-83
2023/07/08 03:45:09;;;;;;;7.93;4.60;;;22.60;99.90;;;;;;5015386;28;20915;-83
2023/07/08 03:47:35;;;;;;;7.55;3.95;;;22.60;99.90;;;;;;5032856;28;20472;-85
2023/07/08 03:50:01;;;;;;;6.55;3.85;;;22.60;99.90;;;;;;5035764;28;20796;-84
2023/07/08 03:52:26;;;;;;;4.43;3.03;;;22.70;99.90;;;;;;5016232;28;20808;-84
2023/07/08 03:54:52;;;;;;;5.10;3.83;;;22.70;99.90;;;;;;5023812;28;20738;-83
2023/07/08 03:57:17;;;;;;;4.47;3.50;;;22.80;99.90;;;;;;5019581;28;20428;-84
2023/07/08 03:59:43;;;;;;;4.50;3.50;;;22.80;99.90;;;;;;5034344;28;20518;-84
2023/07/08 04:02:11;;;;;;;8.80;3.70;;;22.70;99.90;;;;;;5036175;28;20397;-85
2023/07/08 04:04:37;;;;;;;4.10;3.22;;;22.40;99.90;;;;;;5056421;28;20385;-82
2023/07/08 04:07:04;;;;;;;4.77;3.37;;;22.10;99.90;;;;;;5057443;28;20393;-83
2023/07/08 04:09:29;;;;;;;4.20;3.30;;;22.00;99.90;;;;;;5039230;28;20389;-83
2023/07/08 04:11:55;;;;;;;6.43;3.90;;;21.90;99.90;;;;;;5066725;28;20397;-81
2023/07/08 04:14:20;;;;;;;5.17;3.60;;;21.80;99.90;;;;;;5033240;28;20405;-84
2023/07/08 04:17:12;;;;;;;4.95;3.60;;;21.70;99.90;;;;;;5042410;28;20546;-82
2023/07/08 04:19:43;;;;;;;4.50;3.13;;;21.60;99.90;;;;;;5036715;28;20412;-85
2023/07/08 04:22:10;;;;;;;3.85;3.40;;;21.30;99.90;;;;;;5044657;28;20435;-84
2023/07/08 04:24:36;;;;;;;5.25;3.60;;;20.90;99.90;;;;;;5047097;28;20393;-83
2023/07/08 04:27:02;;;;;;;5.80;2.90;;;20.70;99.90;;;;;;5072406;28;20380;-85
2023/07/08 04:29:28;;;;;;;3.42;2.95;;;20.70;99.90;;;;;;5038786;28;20398;-84
2023/07/08 04:31:54;;;;;;;4.20;2.93;;;20.60;99.90;;;;;;5058375;28;20412;-84
2023/07/08 04:34:20;;;;;;;3.87;2.20;;;20.60;99.90;;;;;;5039906;28;20443;-86
2023/07/08 04:36:46;;;;;;;4.70;2.20;;;21.10;99.90;;;;;;5039787;28;20413;-83
2023/07/08 04:39:12;;;;;;;3.63;1.90;;;21.00;99.90;;;;;;5060864;28;20417;-83
2023/07/08 04:41:40;;;;;;;3.20;2.33;;;21.00;99.90;;;;;;5063721;28;20413;-80
2023/07/08 04:44:10;;;;;;;3.90;2.50;;;20.80;99.90;;;;;;5044336;28;20390;-83
2023/07/08 04:46:50;;;;;;;3.17;2.20;;;20.20;99.90;;;;;;5046580;28;20382;-81
2023/07/08 04:49:16;;;;;;;3.63;2.30;;;19.80;99.90;;;;;;5074768;28;20378;-82
2023/07/08 04:51:42;;;;;;;3.20;2.10;;;19.50;99.90;;;;;;5071935;28;20476;-80
2023/07/08 04:54:08;;;;;;;2.80;2.50;;;19.50;99.90;;;;;;5042731;28;20474;-82
2023/07/08 04:56:38;;;;;;;3.20;2.40;;;19.80;99.90;;;;;;5054968;28;20768;-83
2023/07/08 04:59:05;;;;;;;3.20;2.00;;;19.80;99.90;;;;;;5018359;28;20430;-80
2023/07/08 05:01:30;;;;;;;3.40;2.10;;;19.90;99.90;;;;;;5018055;28;20792;-82
2023/07/08 05:03:56;;;;;;;2.95;2.30;;;19.70;99.90;;;;;;5035762;28;20383;-80
2023/07/08 05:06:22;;;;;;;2.60;2.10;;;19.50;99.90;;;;;;5034737;28;20434;-81
2023/07/08 05:08:47;;;;;;;4.00;2.40;;;19.70;99.90;;;;;;5035484;28;20461;-81
2023/07/08 05:11:13;;;;;;;4.15;2.28;;;19.50;99.90;;;;;;5034637;28;20383;-80
2023/07/08 05:13:38;;;;;;;2.83;2.00;;;19.70;99.90;;;;;;5039053;28;20403;-80
2023/07/08 05:16:04;;;;;;;2.92;2.20;;;19.70;99.90;;;;;;5052715;28;20418;-82
2023/07/08 05:18:30;;;;;;;3.70;2.40;;;19.50;99.90;;;;;;5028962;28;20469;-83
2023/07/08 05:20:56;;;;;;;3.15;2.10;;;19.30;99.90;;;;;;5046637;28;20465;-82
2023/07/08 05:23:21;;;;;;;3.20;2.20;;;19.00;99.90;;;;;;5034252;28;20462;-84
2023/07/08 05:25:47;;;;;;;5.07;1.90;;;18.80;99.90;;;;;;5034690;28;20463;-82
2023/07/08 05:28:13;;;;;;;3.33;2.27;;;18.70;99.90;;;;;;5042379;28;20431;-83
2023/07/08 05:30:40;;;;;;;4.33;2.37;;;18.60;99.90;;;;;;5022910;28;20387;-83
2023/07/08 05:33:06;;;;;;;3.70;2.20;;;18.90;99.90;;;;;;5018380;28;20885;-83
2023/07/08 05:35:32;;;;;;;2.87;2.23;;;18.80;99.90;;;;;;5039879;28;20430;-83
2023/07/08 05:37:57;;;;;;;3.20;2.30;;;18.60;99.90;;;;;;5021319;28;20422;-84
2023/07/08 05:40:23;;;;;;;3.15;1.80;;;18.80;99.90;;;;;;5021626;28;20419;-83
2023/07/08 05:42:48;;;;;;;4.80;2.37;;;18.60;99.90;;;;;;5021629;28;20815;-84
2023/07/08 05:45:14;;;;;;;3.00;1.70;;;18.80;99.90;;;;;;5036067;28;20387;-84
2023/07/08 05:47:39;;;;;;;3.03;1.90;;;18.90;99.90;;;;;;5034628;28;20398;-85
2023/07/08 05:50:06;;;;;;;1.90;1.70;;;18.80;99.90;;;;;;5063742;28;20398;-84
2023/07/08 05:52:31;;;;;;;2.80;2.10;;;18.80;99.90;;;;;;5053338;28;20801;-84
2023/07/08 05:54:57;;;;;;;2.73;1.70;;;18.70;99.90;;;;;;5048792;28;20420;-82
2023/07/08 05:57:25;;;;;;;2.30;2.10;;;18.40;99.90;;;;;;5036085;28;20787;-84
2023/07/08 05:59:51;;;;;;;4.40;2.40;;;18.20;99.90;;;;;;5052244;28;20416;-84
2023/07/08 06:02:19;;;;;;;3.57;2.23;;;18.10;99.90;;;;;;5063895;28;20381;-83
2023/07/08 06:04:45;;;;;;;3.35;2.50;;;18.00;99.90;;;;;;5045157;28;20385;-84
2023/07/08 06:07:10;;;;;;;4.13;2.10;;;18.10;99.90;;;;;;5032237;28;20404;-84
2023/07/08 06:09:36;;;;;;;4.57;2.10;;;18.30;99.90;;;;;;5034019;28;20427;-83
2023/07/08 06:12:01;;;;;;;4.00;2.20;;;18.40;99.90;;;;;;5023674;28;20753;-84
2023/07/08 06:14:27;;;;;;;3.30;2.50;;;18.40;99.90;;;;;;5032193;28;20382;-86
2023/07/08 06:16:54;;;;;;;2.60;2.38;;;18.30;99.90;;;;;;5032309;28;20387;-86
2023/07/08 06:19:20;;;;;;;3.70;2.50;;;18.40;99.90;;;;;;5015075;28;20407;-83
2023/07/08 06:21:45;;;;;;;2.08;1.85;;;18.40;99.90;;;;;;5021552;28;20424;-84
2023/07/08 06:24:11;;;;;;;2.70;1.93;;;18.60;99.90;;;;;;5036979;28;20826;-85
2023/07/08 06:26:37;;;;;;;4.30;2.40;;;18.80;99.90;;;;;;5038271;28;20429;-86
2023/07/08 06:29:03;;;;;;;1.90;1.70;;;18.80;99.90;;;;;;5033104;28;20448;-87
2023/07/08 06:31:29;;;;;;;5.93;2.33;;;18.80;99.90;;;;;;5015449;28;20776;-88
2023/07/08 06:33:54;;;;;;;3.20;2.30;;;18.50;99.90;;;;;;5033047;28;20391;-85
2023/07/08 06:36:20;;;;;;;2.28;2.00;;;18.50;99.90;;;;;;5032683;28;20398;-85
2023/07/08 06:38:45;;;;;;;2.50;2.20;;;18.70;99.90;;;;;;5028646;28;20812;-85
2023/07/08 06:41:11;;;;;;;2.78;2.20;;;18.70;99.90;;;;;;5045377;28;20423;-85
2023/07/08 06:43:36;;;;;;;2.40;2.20;;;18.80;99.90;;;;;;5037937;28;20392;-85
2023/07/08 06:46:02;;;;;;;4.40;2.10;;;18.90;99.90;;;;;;5034221;28;20473;-85
2023/07/08 06:48:27;;;;;;;3.60;2.30;;;19.00;99.90;;;;;;5033644;28;20476;-83
2023/07/08 06:50:53;;;;;;;2.00;1.80;;;18.90;99.90;;;;;;5052221;28;20389;-85
2023/07/08 06:53:18;;;;;;;2.30;2.00;;;19.00;99.90;;;;;;5052867;28;20382;-84
2023/07/08 06:55:45;;;;;;;2.30;1.80;;;19.20;99.90;;;;;;5040016;28;20415;-88
2023/07/08 06:58:10;;;;;;;2.40;1.73;;;19.40;99.90;;;;;;5036315;28;20414;-86
2023/07/08 07:00:36;;;;;;;3.23;1.97;;;19.50;99.90;;;;;;5039551;28;20411;-86
2023/07/08 07:03:01;;;;;;;3.10;2.10;;;19.50;99.90;;;;;;5033158;28;20489;-84
2023/07/08 07:05:27;;;;;;;3.27;2.00;;;19.60;99.90;;;;;;5031121;28;20391;-84
2023/07/08 07:07:53;;;;;;;3.65;2.10;;;19.70;99.90;;;;;;5031250;28;20888;-84
2023/07/08 07:10:19;;;;;;;2.27;2.07;;;19.90;99.90;;;;;;5015550;28;20761;-86
2023/07/08 07:12:45;;;;;;;3.95;2.20;;;19.80;99.90;;;;;;5017314;28;20826;-84
2023/07/08 07:15:11;;;;;;;2.92;2.10;;;19.80;99.90;;;;;;5018642;28;20387;-84
2023/07/08 07:17:36;;;;;;;3.03;1.70;;;20.10;99.90;;;;;;5028364;28;20411;-84
2023/07/08 07:20:03;;;;;;;2.53;1.73;;;20.30;99.90;;;;;;5059025;28;20454;-84
2023/07/08 07:22:29;;;;;;;3.47;2.10;;;20.40;99.90;;;;;;5034926;28;20397;-83
2023/07/08 07:24:54;;;;;;;2.65;1.88;;;20.40;99.90;;;;;;5056384;28;20455;-84
2023/07/08 07:27:20;;;;;;;3.10;2.03;;;20.40;99.90;;;;;;5055361;28;20388;-85
2023/07/08 07:29:48;;;;;;;4.20;1.90;;;20.40;99.90;;;;;;5040129;28;20410;-85
2023/07/08 07:32:15;;;;;;;2.07;1.80;;;20.40;99.90;;;;;;5018591;28;20387;-86
2023/07/08 07:34:41;;;;;;;2.35;2.00;;;20.50;99.90;;;;;;5015711;28;20386;-85
2023/07/08 07:37:12;;;;;;;3.90;2.30;;;20.60;99.90;;;;;;5014528;28;20839;-85
2023/07/08 07:39:38;;;;;;;4.45;1.80;;;20.80;99.90;;;;;;5020858;28;20449;-85
2023/07/08 07:42:03;;;;;;;2.95;1.98;;;20.90;99.90;;;;;;5020579;28;20387;-85
2023/07/08 07:44:29;;;;;;;4.40;2.00;;;20.90;99.90;;;;;;5020188;28;20391;-85
2023/07/08 07:46:54;;;;;;;3.88;2.10;;;21.10;99.90;;;;;;5038957;28;20478;-85
2023/07/08 07:49:21;;;;;;;2.00;1.70;;;20.90;99.90;;;;;;5020905;28;20391;-85
2023/07/08 07:51:46;;;;;;;3.40;1.77;;;21.20;99.90;;;;;;5040197;28;20367;-84
2023/07/08 07:54:12;;;;;;;2.20;1.80;;;21.30;99.90;;;;;;5051236;28;20391;-83
2023/07/08 07:56:37;;;;;;;3.60;2.33;;;21.30;99.90;;;;;;5031817;28;20451;-83
2023/07/08 07:59:03;;;;;;;4.93;2.13;;;21.50;99.90;;;;;;5031147;28;20407;-83
2023/07/08 08:01:29;;;;;;;3.15;1.70;;;21.40;99.90;;;;;;5059203;28;20398;-84
2023/07/08 08:03:55;;;;;;;2.40;1.77;;;21.50;99.90;;;;;;5047508;28;20430;-84
2023/07/08 08:06:20;;;;;;;1.70;1.50;;;21.70;99.90;;;;;;5045748;28;20402;-85
2023/07/08 08:08:47;;;;;;;3.50;2.00;;;21.80;99.90;;;;;;5044950;28;20383;-84
2023/07/08 08:11:13;;;;;;;3.88;2.08;;;21.90;99.90;;;;;;5043939;28;20403;-84
2023/07/08 08:13:39;;;;;;;3.70;2.20;;;22.00;99.90;;;;;;5024786;28;20425;-84
2023/07/08 08:16:04;;;;;;;2.90;2.10;;;22.10;99.90;;;;;;5023737;28;20379;-84
2023/07/08 08:18:30;;;;;;;4.22;1.95;;;22.20;99.90;;;;;;5025053;28;20439;-83
2023/07/08 08:20:55;;;;;;;2.60;1.60;;;22.30;99.90;;;;;;5043185;28;20413;-84
2023/07/08 08:23:21;;;;;;;2.63;1.90;;;22.30;99.90;;;;;;5061755;28;20377;-84
2023/07/08 08:25:46;;;;;;;2.10;1.52;;;22.20;99.90;;;;;;5063349;28;20389;-82
2023/07/08 08:28:12;;;;;;;3.20;1.97;;;22.10;99.90;;;;;;5041570;28;20470;-85
2023/07/08 08:30:38;;;;;;;3.50;1.85;;;22.20;99.90;;;;;;5033428;28;20398;-84
2023/07/08 08:33:04;;;;;;;2.93;2.00;;;22.40;99.90;;;;;;5064708;28;20386;-85
2023/07/08 08:35:29;;;;;;;2.95;1.98;;;22.50;99.90;;;;;;5043590;28;20389;-85
2023/07/08 08:37:55;;;;;;;2.97;2.10;;;22.40;99.90;;;;;;5048086;28;20406;-84
2023/07/08 08:40:20;;;;;;;2.23;1.83;;;22.50;99.90;;;;;;5046408;28;20432;-84
2023/07/08 08:42:53;;;;;;;3.60;1.90;;;22.50;99.90;;;;;;5052856;28;20395;-85
2023/07/08 08:45:20;;;;;;;3.85;2.00;;;22.60;99.90;;;;;;5050528;28;20793;-84
2023/07/08 08:47:49;;;;;;;4.80;2.80;;;22.50;99.90;;;;;;5051972;28;20386;-85
2023/07/08 08:50:28;;;;;;;3.00;1.90;;;22.50;99.90;;;;;;5057201;28;20452;-85
2023/07/08 08:52:55;;;;;;;2.80;2.10;;;22.60;99.90;;;;;;5062104;28;20418;-84
2023/07/08 08:55:23;;;;;;;2.60;1.92;;;22.80;99.90;;;;;;5049530;28;20391;-85
2023/07/08 08:58:20;;;;;;;3.30;1.90;;;22.90;99.90;;;;;;5046670;28;20856;-84
2023/07/08 09:01:02;;;;;;;2.00;1.80;;;22.80;99.90;;;;;;5030506;28;20425;-84
2023/07/08 09:03:35;;;;;;;4.70;2.00;;;22.80;99.90;;;;;;5028331;28;20394;-84
2023/07/08 09:06:07;;;;;;;2.40;1.98;;;23.00;99.90;;;;;;5025675;28;20383;-85
2023/07/08 09:08:35;;;;;;;3.75;1.88;;;23.00;99.90;;;;;;5035981;28;20395;-85
2023/07/08 09:11:27;;;;;;;4.40;2.30;;;23.30;99.90;;;;;;5025825;28;20458;-83
2023/07/08 09:13:54;;;;;;;2.90;2.00;;;23.30;99.90;;;;;;5023509;28;20394;-85
2023/07/08 09:16:49;;;;;;;2.53;1.67;;;23.60;99.90;;;;;;5022307;28;20390;-85
2023/07/08 09:19:23;;;;;;;3.20;1.80;;;23.60;99.90;;;;;;5022259;28;20559;-85
2023/07/08 09:22:01;;;;;;;3.17;1.70;;;23.70;99.90;;;;;;5024362;28;20395;-85
2023/07/08 09:24:42;;;;;;;2.15;1.95;;;23.50;99.90;;;;;;5035241;28;20908;-85
2023/07/08 09:27:08;;;;;;;2.70;2.10;;;23.50;99.90;;;;;;5043997;28;20810;-85
2023/07/08 09:29:33;;;;;;;4.28;2.10;;;23.70;99.90;;;;;;5034063;28;20420;-85
2023/07/08 09:32:11;;;;;;;2.90;1.70;;;23.90;99.90;;;;;;5055154;28;20439;-84
2023/07/08 09:34:42;;;;;;;3.10;1.97;;;23.80;99.90;;;;;;5038836;28;20455;-85
2023/07/08 09:37:27;;;;;;;3.10;1.60;;;23.90;99.90;;;;;;5050902;28;20410;-85
2023/07/08 09:39:54;;;;;;;2.10;1.90;;;24.30;99.90;;;;;;5049277;28;20410;-85
2023/07/08 09:42:23;;;;;;;2.70;1.83;;;24.40;99.90;;;;;;5067039;28;20504;-85
2023/07/08 09:44:58;;;;;;;3.20;2.30;;;24.30;99.90;;;;;;5042158;28;20445;-85
2023/07/08 09:47:32;;;;;;;2.75;1.92;;;24.60;99.90;;;;;;5048945;28;20387;-85
2023/07/08 09:49:59;;;;;;;2.75;1.90;;;24.60;99.90;;;;;;5034228;28;20387;-85
2023/07/08 09:52:26;;;;;;;2.30;1.80;;;24.80;99.90;;;;;;5051722;28;20903;-85
2023/07/08 09:54:52;;;;;;;2.47;2.10;;;24.80;99.90;;;;;;5051410;28;20403;-84
2023/07/08 09:57:30;;;;;;;2.50;1.63;;;24.90;99.90;;;;;;5049702;28;20462;-85
2023/07/08 10:00:02;;;;;;;4.70;1.90;;;24.90;99.90;;;;;;5045143;28;20410;-85
2023/07/08 10:02:44;;;;;;;2.47;1.70;;;25.00;99.90;;;;;;5043789;28;20383;-84
2023/07/08 10:05:42;;;;;;;3.38;2.03;;;24.80;99.90;;;;;;5049714;28;20363;-86
2023/07/08 10:08:22;;;;;;;1.90;1.70;;;24.70;99.90;;;;;;5052688;28;20414;-84
2023/07/08 10:11:22;;;;;;;3.00;2.00;;;24.70;99.90;;;;;;5051347;28;20417;-84
2023/07/08 10:13:52;;;;;;;3.20;2.00;;;24.90;99.90;;;;;;5035447;28;20374;-83
2023/07/08 10:16:25;;;;;;;1.70;1.58;;;24.90;99.90;;;;;;5040582;28;20380;-85
2023/07/08 10:18:51;;;;;;;1.60;1.50;;;24.90;99.90;;;;;;5017988;28;20411;-85
2023/07/08 10:21:40;;;;;;;2.30;1.80;;;24.90;99.90;;;;;;5021253;28;20498;-84
2023/07/08 10:24:45;;;;;;;2.93;1.50;;;25.10;99.90;;;;;;5025799;28;20395;-84
2023/07/08 10:27:50;;;;;;;1.70;1.60;;;25.60;99.90;;;;;;5000470;28;20449;-85
2023/07/08 10:30:26;;;;;;;1.90;1.40;;;25.80;99.90;;;;;;5018944;28;20452;-85
2023/07/08 10:33:27;;;;;;;2.70;1.70;;;26.10;99.90;;;;;;5038366;28;20487;-85
2023/07/08 10:36:15;;;;;;;2.08;1.30;;;26.30;99.90;;;;;;5042947;28;20454;-85
2023/07/08 10:38:49;;;;;;;2.33;1.60;;;26.50;99.90;;;;;;5037901;28;20398;-85
2023/07/08 10:41:32;;;;;;;2.00;1.77;;;26.70;1.00;;;;;;5025137;28;20393;-86
2023/07/08 10:44:33;;;;;;;3.72;1.90;;;26.60;99.90;;;;;;5025695;28;20390;-86
2023/07/08 10:47:11;;;;;;;2.30;1.60;;;26.80;46.30;;;;;;5028086;28;20490;-85
2023/07/08 10:50:06;;;;;;;2.17;1.90;;;27.00;99.90;;;;;;5047787;28;20469;-86
2023/07/08 10:53:01;;;;;;;3.40;2.00;;;27.00;99.90;;;;;;5047510;28;20383;-84
2023/07/08 10:55:58;;;;;;;3.60;1.77;;;26.90;99.90;;;;;;5048880;28;20413;-84
2023/07/08 10:58:50;;;;;;;4.70;2.40;;;27.20;99.90;;;;;;5048487;28;20413;-85
2023/07/08 11:01:43;;;;;;;2.53;2.00;;;27.30;99.90;;;;;;5021096;28;20383;-85
2023/07/08 11:04:35;;;;;;;2.50;1.80;;;26.90;99.90;;;;;;5039906;28;20379;-85
2023/07/08 11:07:27;;;;;;;1.98;1.58;;;26.90;99.90;;;;;;5038686;28;20417;-85
2023/07/08 11:09:59;;;;;;;3.55;2.10;;;27.00;23.00;;;;;;5030725;28;20411;-85
2023/07/08 11:12:56;;;;;;;3.70;2.30;;;27.30;99.90;;;;;;5036088;28;20393;-84
2023/07/08 11:15:30;;;;;;;2.88;2.00;;;27.50;99.90;;;;;;5032191;28;20394;-85
2023/07/08 11:17:58;;;;;;;3.40;2.20;;;27.70;98.40;;;;;;5027421;28;20394;-85
2023/07/08 11:20:42;;;;;;;2.00;1.80;;;27.50;99.90;;;;;;5038148;28;20401;-85
2023/07/08 11:23:29;;;;;;;2.08;1.85;;;27.70;99.90;;;;;;5036643;28;20409;-85
2023/07/08 11:26:21;;;;;;;3.53;2.07;;;27.90;1.00;;;;;;5041021;28;20775;-84
2023/07/08 11:28:49;;;;;;;2.50;1.80;;;28.30;99.90;;;;;;5039579;28;20396;-84
2023/07/08 11:31:15;;;;;;;3.13;2.40;;;28.50;2.10;;;;;;5061551;28;20415;-84
2023/07/08 11:33:42;;;;;;;2.80;1.92;;;28.90;1.00;;;;;;5037406;28;20399;-83
2023/07/08 11:36:09;;;;;;;2.40;1.60;;;29.10;1.00;;;;;;5055316;28;20447;-85
2023/07/08 11:38:35;;;;;;;2.30;2.10;;;29.40;1.00;;;;;;5041193;28;20397;-84
2023/07/08 11:41:11;;;;;;;2.93;2.00;;;29.60;52.00;;;;;;5036989;28;20946;-84
2023/07/08 11:43:55;;;;;;;2.33;2.10;;;29.30;54.60;;;;;;5048960;28;20391;-84
2023/07/08 11:46:28;;;;;;;2.60;1.80;;;29.30;1.00;;;;;;5042797;28;20406;-84
2023/07/08 11:48:56;;;;;;;3.20;2.05;;;29.10;1.00;;;;;;5058191;28;20413;-82
2023/07/08 11:51:30;;;;;;;2.60;1.90;;;29.60;99.90;;;;;;5041693;28;20393;-85
2023/07/08 11:54:14;;;;;;;2.67;1.88;;;30.20;1.00;;;;;;5061757;28;20413;-85
2023/07/08 11:56:56;;;;;;;1.70;1.60;;;30.40;1.00;;;;;;5056257;28;20410;-85
2023/07/08 11:59:24;;;;;;;2.40;1.80;;;30.40;26.70;;;;;;5051675;28;20403;-85
2023/07/08 12:02:00;;;;;;;2.30;1.73;;;30.90;1.00;;;;;;5041332;28;20450;-84
2023/07/08 12:04:35;;;;;;;1.90;1.80;;;31.70;1.00;;;;;;5053817;28;20394;-85
2023/07/08 12:07:33;;;;;;;2.50;1.95;;;30.90;1.00;;;;;;5048688;28;20379;-84
2023/07/08 12:10:10;;;;;;;2.20;1.80;;;31.20;1.00;;;;;;5037691;28;20393;-85
2023/07/08 12:12:40;;;;;;;2.22;2.03;;;30.30;1.00;;;;;;5055277;28;20457;-84
2023/07/08 12:15:23;;;;;;;1.70;1.60;;;30.20;1.00;;;;;;5037742;28;20498;-84
2023/07/08 12:17:52;;;;;;;2.40;1.58;;;30.40;1.00;;;;;;5051974;28;20388;-86
2023/07/08 12:20:25;;;;;;;3.38;1.50;;;30.30;1.00;;;;;;5055743;28;20453;-85
2023/07/08 12:22:51;;;;;;;2.22;1.55;;;29.60;1.00;;;;;;5060741;28;20412;-85
2023/07/08 12:25:21;;;;;;;3.50;1.80;;;29.60;1.00;;;;;;5049651;28;20927;-86
2023/07/08 12:27:47;;;;;;;1.95;1.70;;;30.40;1.00;;;;;;5046703;28;20384;-87
2023/07/08 12:30:15;;;;;;;3.03;1.80;;;30.80;1.00;;;;;;5047843;28;20406;-85
2023/07/08 12:32:42;;;;;;;2.78;1.90;;;31.20;1.00;;;;;;5047217;28;20442;-86
2023/07/08 12:35:24;;;;;;;2.28;2.00;;;31.80;1.00;;;;;;5043982;28;20398;-86
2023/07/08 12:37:52;;;;;;;2.40;1.75;;;31.30;1.00;;;;;;5029970;28;20414;-86
2023/07/08 12:40:20;;;;;;;3.08;2.17;;;31.80;1.00;;;;;;5040170;28;20764;-86
2023/07/08 12:42:46;;;;;;;3.22;2.00;;;30.90;1.00;;;;;;5043230;28;20382;-87
2023/07/08 12:45:15;;;;;;;2.42;2.03;;;32.50;1.00;;;;;;5047768;28;20376;-87
2023/07/08 12:47:41;;;;;;;2.00;1.73;;;32.60;1.00;;;;;;5030999;28;20387;-86
2023/07/08 12:50:09;;;;;;;3.25;1.80;;;32.50;1.00;;;;;;5028061;28;20425;-87
2023/07/08 12:52:35;;;;;;;2.58;1.90;;;32.20;1.00;;;;;;5041679;28;20381;-86
2023/07/08 12:55:00;;;;;;;2.17;1.90;;;32.10;1.00;;;;;;5060091;28;20413;-86
2023/07/08 12:57:26;;;;;;;2.00;1.50;;;32.60;1.00;;;;;;5032576;28;20465;-86
2023/07/08 12:59:52;;;;;;;2.70;2.00;;;32.10;1.00;;;;;;5040166;28;20413;-86
2023/07/08 13:02:21;;;;;;;2.90;2.15;;;31.80;1.00;;;;;;5063430;28;20883;-86
2023/07/08 13:04:50;;;;;;;3.83;2.03;;;32.20;1.00;;;;;;5047892;28;20416;-86
2023/07/08 13:07:38;;;;;;;2.42;2.22;;;32.20;1.00;;;;;;5067377;28;20436;-86
2023/07/08 13:10:06;;;;;;;2.10;1.90;;;32.20;1.00;;;;;;5064203;28;20436;-86
2023/07/08 13:12:35;;;;;;;2.80;2.00;;;31.50;1.00;;;;;;5048164;28;20432;-85
2023/07/08 13:15:02;;;;;;;2.20;2.00;;;32.10;1.00;;;;;;5053156;28;20480;-86
2023/07/08 13:17:28;;;;;;;2.28;1.63;;;31.80;1.00;;;;;;5026414;28;20915;-85
2023/07/08 13:19:55;;;;;;;3.15;2.22;;;32.40;1.00;;;;;;5035646;28;20472;-84
2023/07/08 13:22:23;;;;;;;3.88;2.10;;;32.10;1.00;;;;;;5051852;28;20397;-85
2023/07/08 13:24:58;;;;;;;3.70;1.90;;;32.60;1.00;;;;;;5055936;28;20393;-86
2023/07/08 13:27:25;;;;;;;2.53;2.00;;;32.50;1.00;;;;;;5061259;28;20382;-86
2023/07/08 13:29:55;;;;;;;3.77;2.40;;;32.70;1.00;;;;;;5018608;28;20398;-85
2023/07/08 13:32:30;;;;;;;3.50;2.20;;;32.00;1.00;;;;;;5032925;28;20383;-85
2023/07/08 13:34:56;;;;;;;2.67;2.20;;;31.80;1.00;;;;;;5038157;28;20391;-85
2023/07/08 13:37:25;;;;;;;2.80;1.97;;;32.30;1.00;;;;;;5020248;28;20395;-85
2023/07/08 13:39:53;;;;;;;3.10;2.10;;;32.80;1.00;;;;;;5037912;28;20417;-86
2023/07/08 13:42:18;;;;;;;2.70;2.13;;;32.60;1.00;;;;;;5021297;28;20385;-84
2023/07/08 13:44:48;;;;;;;2.87;2.47;;;33.20;1.00;;;;;;5050913;28;20396;-82
2023/07/08 13:47:20;;;;;;;3.25;2.30;;;33.20;1.00;;;;;;5052489;28;20405;-83
2023/07/08 13:49:51;;;;;;;5.50;2.30;;;33.20;1.00;;;;;;5041175;28;20394;-84
2023/07/08 13:52:53;;;;;;;4.40;2.10;;;33.00;1.00;;;;;;5042875;28;20401;-89
2023/07/08 13:55:22;;;;;;;3.73;2.60;;;33.10;1.00;;;;;;5054136;28;20393;-83
2023/07/08 13:57:58;;;;;;;3.00;2.00;;;33.30;1.00;;;;;;5042616;28;20393;-84
2023/07/08 14:00:23;;;;;;;4.80;2.10;;;33.50;1.00;;;;;;5037292;28;20501;-82
2023/07/08 14:02:49;;;;;;;4.27;1.97;;;33.00;1.00;;;;;;5036940;28;20473;-84
2023/07/08 14:05:19;;;;;;;4.27;2.93;;;32.50;1.00;;;;;;5020752;28;20393;-83
2023/07/08 14:07:45;;;;;;;3.40;2.50;;;32.60;1.00;;;;;;5041085;28;20391;-83
2023/07/08 14:10:12;;;;;;;4.55;2.80;;;32.70;1.00;;;;;;5019953;28;20461;-83
2023/07/08 14:12:38;;;;;;;4.10;2.70;;;32.50;1.00;;;;;;5037495;28;20382;-82
2023/07/08 14:15:04;;;;;;;4.10;2.60;;;32.10;1.00;;;;;;5020568;28;20430;-83
2023/07/08 14:17:30;;;;;;;3.70;2.78;;;32.50;1.00;;;;;;5040497;28;20490;-83
2023/07/08 14:19:55;;;;;;;3.70;2.50;;;32.30;1.00;;;;;;5040292;28;20409;-83
2023/07/08 14:22:28;;;;;;;3.53;2.70;;;32.10;1.00;;;;;;5058010;28;20393;-84
2023/07/08 14:24:54;;;;;;;3.00;2.53;;;32.30;1.00;;;;;;5039594;28;20447;-83
2023/07/08 14:27:20;;;;;;;4.57;3.70;;;32.50;1.00;;;;;;5038627;28;20400;-83
2023/07/08 14:29:49;;;;;;;5.50;3.10;;;32.30;1.00;;;;;;5043457;28;20417;-83
2023/07/08 14:32:24;;;;;;;3.50;3.00;;;32.40;1.00;;;;;;5060942;28;20416;-82
2023/07/08 14:34:57;;;;;;;3.60;2.80;;;31.80;1.00;;;;;;5058938;28;20386;-85
2023/07/08 14:37:23;;;;;;;4.63;2.78;;;32.30;1.00;;;;;;5032366;28;20419;-84
2023/07/08 14:39:49;;;;;;;3.03;2.72;;;32.40;1.00;;;;;;5025922;28;20434;-84
2023/07/08 14:42:18;;;;;;;4.20;2.88;;;32.50;1.00;;;;;;5029151;28;20383;-85
2023/07/08 14:44:50;;;;;;;4.47;2.85;;;32.80;1.00;;;;;;5026263;28;20505;-83
2023/07/08 14:47:18;;;;;;;5.13;3.10;;;32.90;1.00;;;;;;5032536;28;20401;-84
2023/07/08 14:49:44;;;;;;;3.50;3.17;;;32.80;1.00;;;;;;5044492;28;20395;-84
2023/07/08 14:52:10;;;;;;;3.30;2.70;;;32.50;1.00;;;;;;5036943;28;20486;-84
2023/07/08 14:54:35;;;;;;;4.80;2.78;;;32.70;1.00;;;;;;5030252;28;20427;-84
2023/07/08 14:57:03;;;;;;;3.23;2.83;;;32.90;1.00;;;;;;5039082;28;20497;-84
2023/07/08 14:59:32;;;;;;;4.05;2.60;;;32.60;1.00;;;;;;5050797;28;20409;-84
2023/07/08 15:01:59;;;;;;;4.13;3.05;;;32.50;1.00;;;;;;5048627;28;20389;-85
2023/07/08 15:04:25;;;;;;;3.33;2.70;;;32.40;1.00;;;;;;5040549;28;20382;-84
2023/07/08 15:06:51;;;;;;;5.60;3.30;;;32.30;1.00;;;;;;5060936;28;20388;-84